• Join FlightAware (Why Join?)
  • Login
  • US Flag 
Rudolph Flight #1: Scheduled 
07:29PM EST


 

Airport Tracker/Info


-or-


 

Live Flight TrackerFlight Track Log ✈ CTL13 ✈ 07-May-2013 ✈ KEYE - KMDW

Flight Track Log - Related Links

Times and Time Zones

All times are in EDT time to prevent confusion due to time zone crossing. See the CTL13 flight status page for this flight to view local times or setup timezone preferences in your user account.

Time Position Orientation Groundspeed Altitude Reporting Facility
EDT Latitude Longitude Course Direction KTS MPH feet Rate Location/Type
08:15PM 39.9500 -86.3000 339° North 150 173 2,900  Level Indianapolis TRACON
08:16PM 39.9633 -86.3161 317° Northwest 147 169 3,200 540 Climbing Chicago Center
08:17PM 40.0044 -86.3489 329° Northwest 146 168 3,800 480 Climbing Chicago Center
08:18PM 40.0394 -86.3764 329° Northwest 146 168 4,200 360 Climbing Chicago Center
08:19PM 40.0672 -86.3981 329° Northwest 148 170 4,500 360 Climbing Indianapolis Center
08:20PM 40.0748 -86.1948 15° North  Level FlightAware Approximate
08:20PM 40.1022 -86.4267 328° Northwest 148 170 4,900  Level Indianapolis Center
08:21PM 40.1383 -86.4556 329° Northwest 150 173 5,200 420 Climbing Indianapolis Center
08:22PM 40.1806 -86.4886 329° Northwest 149 171 5,800 300 Climbing Indianapolis Center
08:23PM 40.2236 -86.5258 327° Northwest 151 174 6,000 60 Climbing Chicago Center
08:24PM 40.2600 -86.5583 326° Northwest 161 185 6,000  Level Chicago Center
08:25PM 40.2992 -86.5881 330° Northwest 162 186 6,000  Level Chicago Center
08:26PM 40.3372 -86.6203 327° Northwest 163 188 6,000  Level Chicago Center
08:27PM 40.3778 -86.6528 329° Northwest 161 185 6,000  Level Chicago Center
08:28PM 40.4183 -86.6825 331° Northwest 161 185 6,000  Level Chicago Center
08:29PM 40.4569 -86.7122 330° Northwest 164 189 6,000  Level Chicago Center
08:30PM 40.4953 -86.7447 327° Northwest 161 185 6,000  Level Chicago Center
08:31PM 40.5339 -86.7719 332° Northwest 162 186 6,000  Level Chicago Center
08:32PM 40.5769 -86.8058 329° Northwest 161 185 6,000 -60 Level Chicago Center
08:33PM 40.6156 -86.8361 329° Northwest 162 186 5,900 -60 Descending Chicago Center
08:34PM 40.6633 -86.8714 331° Northwest 164 189 5,900  Level Chicago Center
08:35PM 40.7017 -86.9047 327° Northwest 164 189 5,900  Level Chicago Center
08:36PM 40.7394 -86.9406 324° Northwest 164 189 5,900  Level Chicago Center
08:37PM 40.7781 -86.9700 330° Northwest 163 188 5,900  Level Chicago Center
08:39PM 40.8178 -87.0011 329° Northwest 165 190 5,900  Level Chicago Center
08:40PM 40.8636 -87.0389 328° Northwest 164 189 5,900  Level Chicago Center
08:41PM 40.9019 -87.0719 327° Northwest 164 189 5,900  Level Chicago Center
08:42PM 40.9408 -87.1022 330° Northwest 165 190 5,900  Level Chicago Center
08:43PM 40.9789 -87.1333 328° Northwest 162 186 6,000 -120 Climbing Chicago Center
08:44PM 41.0181 -87.1661 328° Northwest 165 190 5,700 -540 Descending Chicago Center
08:45PM 41.0692 -87.2083 328° Northwest 178 205 5,000 -600 Descending Chicago Center
08:46PM 41.1125 -87.2444 328° Northwest 184 212 4,500 -540 Descending Chicago Center
08:47PM 41.1567 -87.2808 328° Northwest 186 214 4,000 -240 Descending Chicago Center
08:48PM 41.1978 -87.3147 328° Northwest 182 209 4,000  Level Chicago Center
08:49PM 41.2378 -87.3481 328° Northwest 177 204 4,000  Level Chicago Center
08:50PM 41.2847 -87.3908 326° Northwest 173 199 4,100  Climbing Chicago Center
08:51PM 41.3250 -87.4247 328° Northwest 173 199 4,100  Level Chicago Center
08:52PM 41.3653 -87.4569 329° Northwest 170 196 4,100 -60 Level Chicago Center
08:53PM 41.4061 -87.4889 330° Northwest 172 198 4,000 -60 Descending Chicago Center
08:54PM 41.4486 -87.5114 338° Northwest 173 199 4,000  Level Chicago Center
08:55PM 41.5039 -87.5153 357° North 169 194 4,000 -420 Level Chicago Center
08:56PM 41.5517 -87.5308 346° North 186 214 3,200 -480 Descending Chicago Center
08:57PM 41.5731 -87.5944 294° West 186 214 3,100 -60 Descending Chicago Center
08:59PM 41.5833 -87.7333 276° West 178 205 3,100 -180 Level Chicago TRACON
09:00PM 41.5833 -87.7833 270° West 191 220 2,600 -300 Descending Chicago TRACON
09:01PM 41.6167 -87.8500 304° West 174 200 2,500 -60 Descending Chicago TRACON
09:02PM 41.6500 -87.8833 323° Northwest 170 196 2,500  Level Chicago TRACON
09:02PM 41.6536 -87.8933 296° West 167 192 2,500  Level Chicago Center
09:03PM 41.6833 -87.8667 34° Northeast 163 188 2,500  Level Chicago TRACON
09:04PM 41.7167 -87.8333 37° Northeast 149 171 2,600 -420 Climbing Chicago TRACON
09:05PM 41.7500 -87.8000 37° Northeast 135 155 1,800 -900 Descending Chicago TRACON
09:06PM 41.7667 -87.7667 56° Northeast 115 132 900 -840 Descending Chicago TRACON
09:08PM 41.7833 -87.7500 37° Northeast  Level FlightAware Approximate